createdAt,value
2022-12-07T00:01:35.390Z,5.30
2022-12-07T00:04:07.206Z,5.30
2022-12-07T00:06:38.798Z,5.07
2022-12-07T00:09:07.857Z,4.20
2022-12-07T00:11:35.213Z,4.82
2022-12-07T00:14:05.678Z,4.65
2022-12-07T00:16:34.707Z,5.00
2022-12-07T00:19:03.925Z,4.57
2022-12-07T00:21:33.704Z,4.60
2022-12-07T00:24:01.933Z,5.18
2022-12-07T00:26:31.687Z,5.82
2022-12-07T00:29:01.782Z,5.05
2022-12-07T00:31:34.296Z,5.60
2022-12-07T00:34:02.061Z,5.05
2022-12-07T00:36:29.609Z,4.75
2022-12-07T00:39:01.193Z,4.60
2022-12-07T00:41:29.562Z,5.05
2022-12-07T00:43:57.094Z,5.45
2022-12-07T00:46:25.446Z,5.30
2022-12-07T00:48:54.437Z,5.22
2022-12-07T00:51:24.475Z,6.40
2022-12-07T00:53:52.834Z,5.10
2022-12-07T00:56:23.228Z,4.88
2022-12-07T00:58:59.253Z,5.97
2022-12-07T01:01:28.858Z,5.07
2022-12-07T01:03:56.626Z,5.05
2022-12-07T01:06:25.342Z,5.35
2022-12-07T01:08:53.194Z,5.35
2022-12-07T01:11:23.670Z,5.57
2022-12-07T01:13:53.452Z,5.45
2022-12-07T01:16:22.494Z,5.13
2022-12-07T01:18:52.755Z,5.25
2022-12-07T01:21:26.768Z,5.10
2022-12-07T01:23:54.344Z,5.03
2022-12-07T01:26:24.650Z,5.70
2022-12-07T01:28:55.800Z,5.93
2022-12-07T01:33:54.985Z,5.43
2022-12-07T01:36:23.843Z,5.90
2022-12-07T01:38:54.824Z,5.80
2022-12-07T01:41:22.469Z,5.57
2022-12-07T01:44:27.766Z,5.55
2022-12-07T01:47:02.946Z,5.22
2022-12-07T01:49:43.581Z,5.70
2022-12-07T01:52:30.676Z,5.85
2022-12-07T01:55:06.027Z,5.18
2022-12-07T01:57:36.039Z,5.63
2022-12-07T02:00:06.254Z,6.25
2022-12-07T02:02:42.598Z,5.83
2022-12-07T02:05:10.501Z,7.63
2022-12-07T02:07:39.431Z,5.95
2022-12-07T02:10:17.971Z,6.03
2022-12-07T02:12:48.045Z,6.15
2022-12-07T02:15:16.144Z,6.07
2022-12-07T02:17:50.863Z,6.93
2022-12-07T02:20:56.913Z,6.68
2022-12-07T02:23:54.942Z,6.15
2022-12-07T02:26:49.114Z,6.30
2022-12-07T02:29:25.427Z,6.72
2022-12-07T02:32:09.092Z,7.20
2022-12-07T02:35:09.938Z,7.45
2022-12-07T02:37:43.815Z,6.13
2022-12-07T02:40:30.051Z,7.20
2022-12-07T02:43:11.866Z,6.30
2022-12-07T02:45:41.533Z,7.45
2022-12-07T02:48:12.919Z,7.70
2022-12-07T02:50:40.250Z,7.57
2022-12-07T02:53:33.346Z,6.50
2022-12-07T02:56:30.022Z,7.32
2022-12-07T02:59:18.274Z,6.93
2022-12-07T03:02:23.607Z,6.43
2022-12-07T03:05:18.271Z,7.00
2022-12-07T03:08:17.568Z,7.50
2022-12-07T03:11:01.693Z,7.93
2022-12-07T03:13:42.450Z,6.85
2022-12-07T03:16:15.591Z,7.25
2022-12-07T03:19:03.111Z,7.30
2022-12-07T03:21:36.481Z,6.65
2022-12-07T03:24:12.133Z,7.22
2022-12-07T03:26:47.039Z,6.82
2022-12-07T03:29:25.566Z,7.03
2022-12-07T03:32:08.016Z,6.75
2022-12-07T03:34:48.053Z,7.25
2022-12-07T03:37:39.329Z,6.57
2022-12-07T03:42:40.551Z,6.60
2022-12-07T03:45:08.902Z,7.47
2022-12-07T03:47:39.139Z,6.45
2022-12-07T03:50:22.456Z,7.57
2022-12-07T03:53:03.766Z,6.25
2022-12-07T03:55:35.608Z,6.43
2022-12-07T03:58:08.167Z,6.72
2022-12-07T04:00:36.294Z,7.47
2022-12-07T04:03:03.790Z,7.53
2022-12-07T04:05:31.737Z,7.32
2022-12-07T04:07:59.299Z,6.78
2022-12-07T04:10:26.748Z,5.85
2022-12-07T04:12:54.106Z,5.55
2022-12-07T04:15:21.538Z,5.65
2022-12-07T04:17:49.034Z,5.40
2022-12-07T04:20:16.475Z,6.13
2022-12-07T04:22:43.915Z,5.97
2022-12-07T04:25:11.312Z,5.40
2022-12-07T04:27:38.680Z,6.97
2022-12-07T04:30:06.683Z,6.68
2022-12-07T04:32:34.034Z,5.68
2022-12-07T04:35:01.436Z,6.15
2022-12-07T04:37:29.012Z,5.78
2022-12-07T04:39:56.391Z,6.20
2022-12-07T04:42:23.742Z,5.75
2022-12-07T04:44:51.996Z,7.15
2022-12-07T04:47:19.411Z,5.85
2022-12-07T04:49:46.785Z,6.18
2022-12-07T04:52:14.197Z,6.93
2022-12-07T04:54:41.512Z,5.88
2022-12-07T04:57:08.853Z,6.90
2022-12-07T04:59:39.811Z,5.43
2022-12-07T05:02:09.772Z,5.57
2022-12-07T05:04:37.135Z,5.93
2022-12-07T05:07:04.512Z,5.80
2022-12-07T05:09:31.824Z,5.60
2022-12-07T05:11:59.144Z,5.57
2022-12-07T05:14:26.463Z,5.90
2022-12-07T05:16:54.594Z,4.75
2022-12-07T05:19:22.025Z,4.93
2022-12-07T05:21:49.494Z,4.30
2022-12-07T05:24:18.008Z,5.00
2022-12-07T05:26:46.018Z,6.00
2022-12-07T05:29:16.106Z,5.15
2022-12-07T05:31:44.694Z,5.60
2022-12-07T05:34:12.555Z,5.20
2022-12-07T05:36:40.169Z,5.20
2022-12-07T05:39:08.387Z,5.28
2022-12-07T05:41:54.197Z,5.70
2022-12-07T05:44:21.668Z,5.70
2022-12-07T05:46:49.049Z,4.95
2022-12-07T05:49:16.496Z,5.32
2022-12-07T05:51:43.895Z,4.93
2022-12-07T05:54:11.258Z,5.00
2022-12-07T05:56:38.617Z,5.07
2022-12-07T05:59:24.368Z,5.70
2022-12-07T06:02:02.341Z,5.00
2022-12-07T06:04:37.355Z,4.90
2022-12-07T06:07:05.430Z,5.13
2022-12-07T06:09:33.968Z,4.80
2022-12-07T06:12:19.767Z,5.00
2022-12-07T06:14:47.228Z,4.93
2022-12-07T06:17:15.144Z,4.45
2022-12-07T06:19:42.524Z,5.45
2022-12-07T06:22:12.471Z,4.55
2022-12-07T06:24:40.622Z,4.63
2022-12-07T06:27:08.306Z,5.05
2022-12-07T06:29:35.782Z,4.63
2022-12-07T06:32:04.133Z,5.00
2022-12-07T06:34:31.571Z,5.05
2022-12-07T06:36:58.911Z,4.90
2022-12-07T06:39:28.384Z,6.25
2022-12-07T06:41:56.467Z,5.53
2022-12-07T06:44:24.301Z,5.43
2022-12-07T06:46:52.785Z,5.80
2022-12-07T06:49:23.316Z,6.05
2022-12-07T06:51:50.657Z,6.50
2022-12-07T06:54:18.123Z,5.25
2022-12-07T06:56:45.610Z,5.68
2022-12-07T06:59:12.962Z,5.95
2022-12-07T07:01:40.405Z,6.18
2022-12-07T07:04:07.771Z,5.45
2022-12-07T07:06:35.225Z,5.20
2022-12-07T07:09:02.725Z,5.43
2022-12-07T07:11:30.195Z,30.70
2022-12-07T07:14:00.177Z,7.30
2022-12-07T07:16:27.605Z,6.57
2022-12-07T07:18:54.941Z,6.65
2022-12-07T07:21:22.285Z,5.93
2022-12-07T07:23:49.656Z,6.10
2022-12-07T07:26:22.772Z,5.85
2022-12-07T07:28:50.623Z,5.63
2022-12-07T07:31:17.990Z,6.47
2022-12-07T07:33:47.273Z,7.22
2022-12-07T07:36:14.664Z,6.82
2022-12-07T07:38:41.968Z,6.10
2022-12-07T07:41:09.373Z,6.57
2022-12-07T07:43:36.785Z,5.53
2022-12-07T07:46:04.325Z,6.60
2022-12-07T07:48:31.926Z,7.00
2022-12-07T07:50:59.664Z,7.05
2022-12-07T07:53:27.528Z,7.53
2022-12-07T07:55:55.211Z,7.05
2022-12-07T07:58:22.877Z,6.97
2022-12-07T08:00:50.499Z,6.78
2022-12-07T08:03:17.909Z,6.35
2022-12-07T08:05:45.368Z,6.43
2022-12-07T08:08:12.805Z,7.10
2022-12-07T08:10:40.503Z,8.32
2022-12-07T08:13:14.887Z,7.68
2022-12-07T08:15:46.393Z,8.02
2022-12-07T08:18:15.501Z,8.25
2022-12-07T08:20:43.446Z,6.97
2022-12-07T08:23:12.101Z,8.07
2022-12-07T08:25:40.144Z,7.00
2022-12-07T08:28:08.192Z,7.68
2022-12-07T08:30:35.603Z,6.93
2022-12-07T08:33:03.808Z,7.38
2022-12-07T08:35:31.194Z,6.90
2022-12-07T08:37:58.928Z,8.05
2022-12-07T08:40:26.436Z,8.40
2022-12-07T08:42:53.993Z,8.60
2022-12-07T08:45:26.996Z,7.70
2022-12-07T08:48:03.520Z,7.43
2022-12-07T08:50:33.729Z,8.70
2022-12-07T08:53:01.846Z,7.53
2022-12-07T08:55:30.222Z,7.78
2022-12-07T08:58:00.002Z,8.07
2022-12-07T09:00:28.063Z,9.10
2022-12-07T09:02:55.734Z,8.02
2022-12-07T09:05:24.182Z,7.28
2022-12-07T09:07:55.361Z,8.10
2022-12-07T09:12:50.416Z,7.38
2022-12-07T09:15:17.866Z,7.38
2022-12-07T09:17:45.272Z,8.27
2022-12-07T09:20:13.744Z,6.97
2022-12-07T09:22:41.086Z,6.85
2022-12-07T09:25:08.897Z,6.15
2022-12-07T09:27:36.893Z,7.93
2022-12-07T09:30:06.099Z,6.95
2022-12-07T09:32:33.735Z,6.65
2022-12-07T09:35:01.163Z,6.95
2022-12-07T09:37:28.582Z,6.75
2022-12-07T09:39:55.893Z,6.60
2022-12-07T09:42:28.880Z,8.05
2022-12-07T09:44:57.093Z,7.65
2022-12-07T09:47:24.999Z,6.72
2022-12-07T09:49:54.340Z,7.05
2022-12-07T09:52:35.525Z,7.22
2022-12-07T09:55:15.222Z,6.18
2022-12-07T09:57:43.837Z,6.97
2022-12-07T10:00:26.266Z,6.32
2022-12-07T10:02:58.259Z,6.80
2022-12-07T10:05:31.247Z,7.57
2022-12-07T10:07:58.696Z,17.50
2022-12-07T10:10:32.697Z,11.55
2022-12-07T10:13:01.413Z,11.18
2022-12-07T10:16:06.345Z,7.43
2022-12-07T10:18:42.278Z,7.95
2022-12-07T10:21:12.410Z,7.78
2022-12-07T10:24:01.027Z,13.18
2022-12-07T10:26:34.639Z,12.23
2022-12-07T10:33:30.458Z,8.32
2022-12-07T10:35:58.075Z,6.72
2022-12-07T10:38:27.912Z,6.35
2022-12-07T10:41:06.984Z,6.72
2022-12-07T10:43:35.054Z,7.10
2022-12-07T10:46:21.537Z,6.93
2022-12-07T10:48:54.783Z,6.93
2022-12-07T10:52:02.019Z,6.75
2022-12-07T10:55:06.235Z,6.63
2022-12-07T10:57:52.213Z,6.97
2022-12-07T11:00:23.442Z,5.47
2022-12-07T11:03:23.880Z,9.45
2022-12-07T11:05:55.592Z,6.53
2022-12-07T11:08:33.888Z,6.15
2022-12-07T11:11:07.999Z,5.88
2022-12-07T11:13:52.700Z,6.28
2022-12-07T11:16:26.181Z,5.72
2022-12-07T11:19:04.311Z,5.57
2022-12-07T11:21:57.575Z,5.85
2022-12-07T11:24:36.961Z,6.20
2022-12-07T11:27:25.231Z,7.88
2022-12-07T11:30:23.654Z,6.20
2022-12-07T11:33:10.759Z,5.65
2022-12-07T11:35:54.943Z,5.63
2022-12-07T11:38:42.765Z,6.32
2022-12-07T11:41:16.957Z,6.38
2022-12-07T11:43:52.905Z,5.82
2022-12-07T11:46:25.580Z,5.20
2022-12-07T11:49:14.790Z,6.45
2022-12-07T11:51:44.453Z,4.88
2022-12-07T11:54:42.522Z,5.90
2022-12-07T11:57:38.077Z,5.43
2022-12-07T12:00:13.358Z,6.57
2022-12-07T12:10:06.150Z,4.07
2022-12-07T12:15:45.321Z,4.82
2022-12-07T12:18:23.250Z,3.65
2022-12-07T12:20:57.387Z,4.10
2022-12-07T12:23:46.156Z,3.67
2022-12-07T12:26:23.333Z,2.85
2022-12-07T12:28:59.811Z,3.55
2022-12-07T12:31:29.924Z,3.00
2022-12-07T12:34:03.446Z,3.30
2022-12-07T12:36:43.915Z,3.88
2022-12-07T12:39:17.406Z,3.72
2022-12-07T12:41:47.977Z,6.53
2022-12-07T12:44:20.808Z,5.07
2022-12-07T12:46:58.504Z,6.55
2022-12-07T12:49:28.491Z,5.18
2022-12-07T12:52:15.796Z,5.50
2022-12-07T12:55:01.027Z,4.57
2022-12-07T12:57:33.523Z,4.47
2022-12-07T13:00:04.690Z,3.80
2022-12-07T13:05:04.189Z,4.07
2022-12-07T13:10:32.095Z,5.22
2022-12-07T13:13:23.483Z,3.53
2022-12-07T13:16:16.961Z,3.10
2022-12-07T13:18:44.523Z,3.50
2022-12-07T13:21:11.811Z,3.38
2022-12-07T13:23:45.263Z,3.45
2022-12-07T13:26:35.968Z,3.58
2022-12-07T13:29:22.470Z,4.22
2022-12-07T13:31:51.492Z,5.03
2022-12-07T13:34:32.857Z,4.10
2022-12-07T13:37:03.006Z,4.75
2022-12-07T13:39:30.503Z,4.65
2022-12-07T13:42:00.941Z,4.65
2022-12-07T13:44:29.593Z,4.72
2022-12-07T13:47:13.972Z,4.53
2022-12-07T13:49:56.064Z,4.28
2022-12-07T13:52:27.597Z,4.10
2022-12-07T13:55:07.366Z,3.90
2022-12-07T13:57:37.139Z,4.28
2022-12-07T14:00:07.335Z,4.85
2022-12-07T14:02:41.239Z,4.78
2022-12-07T14:05:26.672Z,4.90
2022-12-07T14:14:58.960Z,4.63
2022-12-07T14:17:28.025Z,4.72
2022-12-07T14:19:57.559Z,4.55
2022-12-07T14:22:30.800Z,4.72
2022-12-07T14:25:02.440Z,4.25
2022-12-07T14:27:37.222Z,4.65
2022-12-07T14:30:06.116Z,4.78
2022-12-07T14:32:36.707Z,4.35
2022-12-07T14:35:11.360Z,4.35
2022-12-07T14:37:40.847Z,3.97
2022-12-07T14:40:13.191Z,4.43
2022-12-07T14:42:41.135Z,4.88
2022-12-07T14:45:18.213Z,4.35
2022-12-07T14:50:39.420Z,4.15
2022-12-07T14:53:24.692Z,4.78
2022-12-07T14:55:52.646Z,8.95
2022-12-07T14:58:21.303Z,7.18
2022-12-07T15:00:48.918Z,4.78
2022-12-07T15:03:16.897Z,4.10
2022-12-07T15:05:44.358Z,5.22
2022-12-07T15:08:14.993Z,5.35
2022-12-07T15:10:42.749Z,6.85
2022-12-07T15:13:28.675Z,6.93
2022-12-07T15:15:56.607Z,5.93
2022-12-07T15:18:25.135Z,5.72
2022-12-07T15:20:52.621Z,4.53
2022-12-07T15:23:19.881Z,5.25
2022-12-07T15:25:49.625Z,4.15
2022-12-07T15:28:17.194Z,5.20
2022-12-07T15:30:45.121Z,5.53
2022-12-07T15:33:14.907Z,5.07
2022-12-07T15:35:44.000Z,5.05
2022-12-07T15:38:12.057Z,7.07
2022-12-07T15:40:39.617Z,4.95
2022-12-07T15:43:27.001Z,4.70
2022-12-07T15:45:54.402Z,5.20
2022-12-07T15:48:29.813Z,7.65
2022-12-07T15:51:09.243Z,19.38
2022-12-07T15:53:36.820Z,9.93
2022-12-07T15:56:08.061Z,6.45
2022-12-07T15:58:35.901Z,5.32
2022-12-07T16:01:14.734Z,5.45
2022-12-07T16:03:43.843Z,6.85
2022-12-07T16:06:12.094Z,4.75
2022-12-07T16:08:44.972Z,4.75
2022-12-07T16:11:12.533Z,4.97
2022-12-07T16:13:40.389Z,4.47
2022-12-07T16:16:12.558Z,4.13
2022-12-07T16:18:40.584Z,4.05
2022-12-07T16:21:08.216Z,4.88
2022-12-07T16:23:36.075Z,4.63
2022-12-07T16:26:15.189Z,5.63
2022-12-07T16:28:42.855Z,4.72
2022-12-07T16:31:13.704Z,5.30
2022-12-07T16:33:42.913Z,5.45
2022-12-07T16:36:11.821Z,5.50
2022-12-07T16:38:39.478Z,4.93
2022-12-07T16:41:08.171Z,4.90
2022-12-07T16:43:36.046Z,5.43
2022-12-07T16:46:04.481Z,5.50
2022-12-07T16:48:32.066Z,5.40
2022-12-07T16:51:05.138Z,5.55
2022-12-07T16:53:32.490Z,5.32
2022-12-07T16:55:59.819Z,5.15
2022-12-07T16:58:27.778Z,5.82
2022-12-07T17:00:55.551Z,5.47
2022-12-07T17:03:23.678Z,5.63
2022-12-07T17:05:51.121Z,5.50
2022-12-07T17:08:18.648Z,5.72
2022-12-07T17:10:46.816Z,11.20
2022-12-07T17:13:32.545Z,5.80
2022-12-07T17:16:05.528Z,6.18
2022-12-07T17:18:35.783Z,6.22
2022-12-07T17:21:09.823Z,6.30
2022-12-07T17:23:37.984Z,6.57
2022-12-07T17:26:20.392Z,6.07
2022-12-07T17:28:48.207Z,6.07
2022-12-07T17:31:17.261Z,5.40
2022-12-07T17:33:44.839Z,6.90
2022-12-07T17:36:16.057Z,6.35
2022-12-07T17:41:12.635Z,6.68
2022-12-07T17:43:40.004Z,6.60
2022-12-07T17:46:12.132Z,6.07
2022-12-07T17:48:39.542Z,6.90
2022-12-07T17:51:25.403Z,7.05
2022-12-07T17:53:53.014Z,8.35
2022-12-07T17:56:28.689Z,7.80
2022-12-07T17:58:57.622Z,6.72
2022-12-07T18:01:27.479Z,7.53
2022-12-07T18:03:57.336Z,6.93
2022-12-07T18:06:25.170Z,6.68
2022-12-07T18:08:52.543Z,6.30
2022-12-07T18:11:19.949Z,6.85
2022-12-07T18:13:47.339Z,8.20
2022-12-07T18:16:20.690Z,8.13
2022-12-07T18:21:23.788Z,7.90
2022-12-07T18:23:56.586Z,7.10
2022-12-07T18:26:25.820Z,7.75
2022-12-07T18:28:53.461Z,7.43
2022-12-07T18:31:21.250Z,7.30
2022-12-07T18:33:49.264Z,7.18
2022-12-07T18:36:17.791Z,6.82
2022-12-07T18:38:45.145Z,8.05
2022-12-07T18:41:14.611Z,7.75
2022-12-07T18:43:42.439Z,7.68
2022-12-07T18:46:11.888Z,8.35
2022-12-07T18:48:39.519Z,7.20
2022-12-07T18:51:08.217Z,9.50
2022-12-07T18:53:35.758Z,8.02
2022-12-07T18:56:07.071Z,8.95
2022-12-07T18:58:35.340Z,9.20
2022-12-07T19:01:03.415Z,9.57
2022-12-07T19:03:33.507Z,9.13
2022-12-07T19:06:06.763Z,8.02
2022-12-07T19:08:34.909Z,7.57
2022-12-07T19:11:24.208Z,7.82
2022-12-07T19:13:51.809Z,8.52
2022-12-07T19:16:19.213Z,9.88
2022-12-07T19:18:51.286Z,8.63
2022-12-07T19:21:19.148Z,9.88
2022-12-07T19:23:46.566Z,10.40
2022-12-07T19:26:14.050Z,9.73
2022-12-07T19:28:41.406Z,10.45
2022-12-07T19:31:10.497Z,10.15
2022-12-07T19:33:38.875Z,9.23
2022-12-07T19:36:06.848Z,9.50
2022-12-07T19:38:34.861Z,10.07
2022-12-07T19:41:07.077Z,11.55
2022-12-07T19:43:35.331Z,9.70
2022-12-07T19:46:06.859Z,9.60
2022-12-07T19:48:34.282Z,10.23
2022-12-07T19:51:05.608Z,11.52
2022-12-07T19:53:33.349Z,9.40
2022-12-07T19:56:01.247Z,9.55
2022-12-07T19:58:28.664Z,10.00
2022-12-07T20:00:56.141Z,9.18
2022-12-07T20:03:23.565Z,9.32
2022-12-07T20:05:50.895Z,9.52
2022-12-07T20:08:18.439Z,9.88
2022-12-07T20:10:46.447Z,9.55
2022-12-07T20:13:28.757Z,9.23
2022-12-07T20:16:17.897Z,10.48
2022-12-07T20:18:43.539Z,10.25
2022-12-07T20:21:11.102Z,9.57
2022-12-07T20:23:39.002Z,10.27
2022-12-07T20:26:09.788Z,9.32
2022-12-07T20:28:37.650Z,11.20
2022-12-07T20:31:05.506Z,10.90
2022-12-07T20:33:32.953Z,11.15
2022-12-07T20:36:05.515Z,11.23
2022-12-07T20:38:33.004Z,10.32
2022-12-07T20:41:03.006Z,11.48
2022-12-07T20:43:30.633Z,11.30
2022-12-07T20:45:58.710Z,11.45
2022-12-07T20:48:26.508Z,13.05
2022-12-07T20:50:53.946Z,13.20
2022-12-07T20:53:21.358Z,12.65
2022-12-07T20:55:48.715Z,12.95
2022-12-07T20:58:16.057Z,13.40
2022-12-07T21:00:43.418Z,12.15
2022-12-07T21:03:10.904Z,12.95
2022-12-07T21:05:38.455Z,12.55
2022-12-07T21:08:05.815Z,12.40
2022-12-07T21:10:33.266Z,12.20
2022-12-07T21:13:01.521Z,13.23
2022-12-07T21:15:28.941Z,11.82
2022-12-07T21:17:56.345Z,13.40
2022-12-07T21:20:23.720Z,12.07
2022-12-07T21:22:51.060Z,11.55
2022-12-07T21:25:18.436Z,12.40
2022-12-07T21:27:46.389Z,13.15
2022-12-07T21:30:13.873Z,12.82
2022-12-07T21:32:41.360Z,13.43
2022-12-07T21:35:09.186Z,12.05
2022-12-07T21:37:36.654Z,13.07
2022-12-07T21:40:04.379Z,12.30
2022-12-07T21:42:31.852Z,12.45
2022-12-07T21:44:59.259Z,11.77
2022-12-07T21:47:26.626Z,11.18
2022-12-07T21:49:54.013Z,10.60
2022-12-07T21:52:21.583Z,12.00
2022-12-07T21:54:49.425Z,11.13
2022-12-07T21:57:17.445Z,12.23
2022-12-07T21:59:44.930Z,10.82
2022-12-07T22:02:14.289Z,10.95
2022-12-07T22:04:41.670Z,11.18
2022-12-07T22:07:09.086Z,10.88
2022-12-07T22:09:36.459Z,11.75
2022-12-07T22:12:04.511Z,11.52
2022-12-07T22:15:10.362Z,10.68
2022-12-07T22:17:37.672Z,10.90
2022-12-07T22:20:05.643Z,10.98
2022-12-07T22:22:33.090Z,10.45
2022-12-07T22:25:00.623Z,11.18
2022-12-07T22:27:27.999Z,10.70
2022-12-07T22:29:55.370Z,10.18
2022-12-07T22:32:47.944Z,11.07
2022-12-07T22:35:10.081Z,9.88
2022-12-07T22:37:37.389Z,9.73
2022-12-07T22:40:05.491Z,10.45
2022-12-07T22:42:32.860Z,10.15
2022-12-07T22:45:00.294Z,10.88
2022-12-07T22:47:27.983Z,11.07
2022-12-07T22:49:55.711Z,11.38
2022-12-07T22:52:23.106Z,10.13
2022-12-07T22:54:50.421Z,11.73
2022-12-07T22:57:17.810Z,10.77
2022-12-07T22:59:45.629Z,11.27
2022-12-07T23:02:12.980Z,10.68
2022-12-07T23:04:40.478Z,10.77
2022-12-07T23:07:07.934Z,10.45
2022-12-07T23:09:35.270Z,10.45
2022-12-07T23:12:21.221Z,11.23
2022-12-07T23:14:48.681Z,10.57
2022-12-07T23:17:16.049Z,10.48
2022-12-07T23:19:43.447Z,11.07
2022-12-07T23:22:10.790Z,9.50
2022-12-07T23:24:38.115Z,10.27
2022-12-07T23:27:05.479Z,11.57
2022-12-07T23:29:33.051Z,11.18
2022-12-07T23:32:00.453Z,12.05
2022-12-07T23:34:27.856Z,10.57
2022-12-07T23:36:55.225Z,10.88
2022-12-07T23:39:22.562Z,10.32
2022-12-07T23:41:49.866Z,10.90
2022-12-07T23:44:18.458Z,11.70
2022-12-07T23:46:45.879Z,10.82
2022-12-07T23:49:13.321Z,11.48
2022-12-07T23:51:40.830Z,11.40
2022-12-07T23:54:08.185Z,11.57
2022-12-07T23:56:35.638Z,10.18
2022-12-07T23:59:04.157Z,11.82
